createdAt,value
2022-09-24T00:00:02.508Z,8.55
2022-09-24T00:00:27.745Z,8.35
2022-09-24T00:00:53.841Z,8.52
2022-09-24T00:01:19.432Z,8.68
2022-09-24T00:01:42.359Z,8.85
2022-09-24T00:02:05.128Z,9.68
2022-09-24T00:02:26.914Z,10.10
2022-09-24T00:02:48.762Z,9.82
2022-09-24T00:03:11.676Z,11.50
2022-09-24T00:03:33.988Z,12.30
2022-09-24T00:04:02.423Z,11.65
2022-09-24T00:04:25.846Z,11.40
2022-09-24T00:04:47.597Z,11.77
2022-09-24T00:05:09.577Z,12.35
2022-09-24T00:05:36.766Z,13.00
2022-09-24T00:06:04.139Z,12.93
2022-09-24T00:06:27.362Z,13.65
2022-09-24T00:06:49.913Z,13.65
2022-09-24T00:07:11.802Z,13.57
2022-09-24T00:07:34.088Z,14.85
2022-09-24T00:07:57.972Z,15.32
2022-09-24T00:08:57.847Z,15.07
2022-09-24T00:09:22.341Z,15.27
2022-09-24T00:09:44.087Z,18.10
2022-09-24T00:10:06.852Z,19.20
2022-09-24T00:10:30.314Z,19.08
2022-09-24T00:10:52.654Z,18.17
2022-09-24T00:11:15.098Z,16.63
2022-09-24T00:11:37.967Z,13.45
2022-09-24T00:12:01.037Z,10.80
2022-09-24T00:12:22.744Z,10.82
2022-09-24T00:12:44.658Z,10.73
2022-09-24T00:13:09.026Z,11.18
2022-09-24T00:13:31.808Z,10.55
2022-09-24T00:13:54.030Z,10.10
2022-09-24T00:14:17.121Z,10.98
2022-09-24T00:14:39.133Z,11.45
2022-09-24T00:15:01.229Z,12.68
2022-09-24T00:15:22.968Z,13.18
2022-09-24T00:15:47.752Z,13.93
2022-09-24T00:16:14.720Z,13.45
2022-09-24T00:16:37.160Z,13.15
2022-09-24T00:16:59.197Z,13.40
2022-09-24T00:17:20.867Z,12.50
2022-09-24T00:17:42.575Z,12.45
2022-09-24T00:18:06.344Z,12.18
2022-09-24T00:18:29.371Z,12.00
2022-09-24T00:18:51.869Z,12.10
2022-09-24T00:19:14.954Z,12.40
2022-09-24T00:19:36.944Z,12.50
2022-09-24T00:19:58.872Z,12.90
2022-09-24T00:20:22.209Z,12.75
2022-09-24T00:20:44.960Z,12.82
2022-09-24T00:21:21.479Z,13.40
2022-09-24T00:21:44.643Z,12.18
2022-09-24T00:22:07.212Z,13.10
2022-09-24T00:22:29.107Z,12.68
2022-09-24T00:22:52.394Z,12.70
2022-09-24T00:23:15.806Z,12.35
2022-09-24T00:23:38.263Z,12.77
2022-09-24T00:24:03.930Z,13.07
2022-09-24T00:24:44.718Z,13.40
2022-09-24T00:25:25.830Z,11.90
2022-09-24T00:26:06.586Z,11.48
2022-09-24T00:26:47.086Z,10.82
2022-09-24T00:27:08.817Z,10.77
2022-09-24T00:27:31.472Z,10.18
2022-09-24T00:27:56.524Z,9.90
2022-09-24T00:28:21.786Z,10.43
2022-09-24T00:28:43.819Z,10.85
2022-09-24T00:29:06.548Z,11.70
2022-09-24T00:29:29.335Z,11.82
2022-09-24T00:29:51.996Z,12.20
2022-09-24T00:30:14.161Z,11.82
2022-09-24T00:30:38.879Z,12.05
2022-09-24T00:31:07.477Z,12.55
2022-09-24T00:31:31.001Z,12.82
2022-09-24T00:31:57.018Z,12.18
2022-09-24T00:32:21.676Z,12.20
2022-09-24T00:32:43.954Z,12.00
2022-09-24T00:33:08.212Z,12.13
2022-09-24T00:33:29.927Z,11.77
2022-09-24T00:33:52.431Z,11.82
2022-09-24T00:34:14.682Z,12.05
2022-09-24T00:34:43.929Z,11.50
2022-09-24T00:35:07.320Z,11.87
2022-09-24T00:35:33.463Z,11.48
2022-09-24T00:36:10.764Z,10.85
2022-09-24T00:36:33.010Z,10.30
2022-09-24T00:36:54.865Z,10.45
2022-09-24T00:37:17.137Z,9.80
2022-09-24T00:37:39.520Z,9.48
2022-09-24T00:38:06.769Z,9.93
2022-09-24T00:38:32.267Z,9.85
2022-09-24T00:38:57.284Z,9.25
2022-09-24T00:39:19.232Z,9.70
2022-09-24T00:39:41.292Z,9.80
2022-09-24T00:40:03.371Z,9.95
2022-09-24T00:40:34.094Z,9.50
2022-09-24T00:40:56.298Z,9.95
2022-09-24T00:41:20.493Z,9.35
2022-09-24T00:41:49.361Z,9.10
2022-09-24T00:42:13.280Z,9.70
2022-09-24T00:42:35.744Z,9.38
2022-09-24T00:42:57.986Z,9.27
2022-09-24T00:43:34.612Z,9.02
2022-09-24T00:43:57.800Z,9.15
2022-09-24T00:44:41.520Z,9.60
2022-09-24T00:45:05.238Z,9.32
2022-09-24T00:45:29.726Z,10.18
2022-09-24T00:45:58.367Z,9.65
2022-09-24T00:46:30.745Z,9.27
2022-09-24T00:46:54.042Z,9.82
2022-09-24T00:47:21.310Z,10.43
2022-09-24T00:47:49.701Z,9.65
2022-09-24T00:48:12.215Z,9.43
2022-09-24T00:48:34.535Z,9.40
2022-09-24T00:49:04.278Z,9.95
2022-09-24T00:49:26.309Z,9.40
2022-09-24T00:49:59.533Z,9.13
2022-09-24T00:50:21.689Z,9.05
2022-09-24T00:50:43.794Z,9.50
2022-09-24T00:51:06.723Z,9.88
2022-09-24T00:51:30.744Z,9.65
2022-09-24T00:51:53.387Z,9.50
2022-09-24T00:52:19.871Z,9.75
2022-09-24T00:52:47.112Z,9.40
2022-09-24T00:53:22.284Z,9.95
2022-09-24T00:53:46.283Z,9.07
2022-09-24T00:54:23.301Z,9.55
2022-09-24T00:54:45.541Z,9.20
2022-09-24T00:55:09.500Z,9.75
2022-09-24T00:55:33.681Z,9.93
2022-09-24T00:55:56.998Z,9.60
2022-09-24T00:56:20.713Z,9.68
2022-09-24T00:56:45.287Z,9.27
2022-09-24T00:57:07.700Z,9.75
2022-09-24T00:57:29.714Z,9.88
2022-09-24T00:57:57.198Z,9.90
2022-09-24T00:58:19.537Z,10.27
2022-09-24T00:58:45.822Z,9.82
2022-09-24T00:59:11.939Z,9.02
2022-09-24T00:59:35.289Z,9.60
2022-09-24T00:59:57.259Z,9.70
2022-09-24T01:00:20.399Z,10.00
2022-09-24T01:00:44.847Z,9.50
2022-09-24T01:01:08.051Z,9.55
2022-09-24T01:01:30.155Z,9.60
2022-09-24T01:01:59.578Z,10.10
2022-09-24T01:02:22.194Z,10.10
2022-09-24T01:02:48.034Z,9.68
2022-09-24T01:03:14.612Z,9.55
2022-09-24T01:03:41.081Z,9.73
2022-09-24T01:04:04.612Z,10.13
2022-09-24T01:04:27.779Z,8.90
2022-09-24T01:04:53.221Z,9.80
2022-09-24T01:05:21.110Z,9.70
2022-09-24T01:05:43.276Z,9.93
2022-09-24T01:06:06.869Z,9.60
2022-09-24T01:06:29.152Z,10.30
2022-09-24T01:06:52.118Z,9.75
2022-09-24T01:07:14.607Z,9.90
2022-09-24T01:07:36.939Z,10.05
2022-09-24T01:08:03.673Z,10.00
2022-09-24T01:08:26.270Z,9.98
2022-09-24T01:08:48.683Z,9.68
2022-09-24T01:09:10.965Z,10.30
2022-09-24T01:09:32.993Z,9.95
2022-09-24T01:09:55.364Z,10.27
2022-09-24T01:10:43.104Z,10.20
2022-09-24T01:11:38.951Z,10.35
2022-09-24T01:12:28.780Z,10.50
2022-09-24T01:13:02.309Z,10.35
2022-09-24T01:13:34.559Z,9.65
2022-09-24T01:14:15.273Z,10.25
2022-09-24T01:15:27.982Z,9.60
2022-09-24T01:16:02.384Z,10.25
2022-09-24T01:16:27.298Z,10.18
2022-09-24T01:16:55.838Z,10.02
2022-09-24T01:17:29.726Z,10.10
2022-09-24T01:18:09.771Z,10.48
2022-09-24T01:18:56.919Z,10.30
2022-09-24T01:19:40.028Z,10.80
2022-09-24T01:20:27.108Z,10.57
2022-09-24T01:21:12.508Z,10.68
2022-09-24T01:21:49.367Z,11.07
2022-09-24T01:22:26.967Z,11.20
2022-09-24T01:23:00.393Z,11.07
2022-09-24T01:23:28.139Z,11.05
2022-09-24T01:24:03.328Z,11.35
2022-09-24T01:24:28.606Z,11.90
2022-09-24T01:25:05.792Z,12.18
2022-09-24T01:25:52.268Z,12.52
2022-09-24T01:26:37.254Z,12.15
2022-09-24T01:27:26.376Z,12.20
2022-09-24T01:28:06.264Z,12.35
2022-09-24T01:28:34.005Z,12.32
2022-09-24T01:29:15.318Z,11.77
2022-09-24T01:29:46.290Z,12.98
2022-09-24T01:30:11.639Z,11.88
2022-09-24T01:30:38.549Z,12.25
2022-09-24T01:31:09.177Z,12.23
2022-09-24T01:31:41.063Z,13.40
2022-09-24T01:32:20.159Z,12.85
2022-09-24T01:33:03.794Z,12.98
2022-09-24T01:33:28.189Z,13.00
2022-09-24T01:33:54.978Z,12.73
2022-09-24T01:34:24.196Z,13.13
2022-09-24T01:34:57.994Z,13.48
2022-09-24T01:35:40.243Z,12.65
2022-09-24T01:36:13.070Z,13.00
2022-09-24T01:36:37.962Z,12.40
2022-09-24T01:37:01.515Z,13.00
2022-09-24T01:37:26.065Z,13.32
2022-09-24T01:37:59.331Z,12.85
2022-09-24T01:38:35.271Z,14.13
2022-09-24T01:39:00.281Z,13.55
2022-09-24T01:39:23.526Z,13.38
2022-09-24T01:39:47.276Z,13.02
2022-09-24T01:40:11.680Z,13.27
2022-09-24T01:40:34.454Z,13.48
2022-09-24T01:41:00.669Z,12.88
2022-09-24T01:41:23.930Z,12.65
2022-09-24T01:41:47.402Z,13.30
2022-09-24T01:42:20.337Z,13.23
2022-09-24T01:42:46.544Z,13.65
2022-09-24T01:43:10.748Z,13.20
2022-09-24T01:43:34.964Z,13.05
2022-09-24T01:44:00.451Z,13.00
2022-09-24T01:44:23.114Z,12.82
2022-09-24T01:45:05.523Z,12.75
2022-09-24T01:46:14.262Z,13.13
2022-09-24T01:46:41.452Z,12.57
2022-09-24T01:47:06.795Z,12.35
2022-09-24T01:48:22.075Z,12.70
2022-09-24T01:48:24.542Z,13.52
2022-09-24T01:48:44.574Z,13.35
2022-09-24T01:49:10.212Z,13.57
2022-09-24T01:49:32.740Z,13.85
2022-09-24T01:49:55.073Z,13.52
2022-09-24T01:50:22.503Z,13.00
2022-09-24T01:50:53.538Z,13.07
2022-09-24T01:51:23.938Z,12.10
2022-09-24T01:52:16.150Z,12.65
2022-09-24T01:53:02.930Z,13.48
2022-09-24T01:53:31.117Z,13.52
2022-09-24T01:54:02.764Z,12.68
2022-09-24T01:54:39.769Z,13.27
2022-09-24T01:55:06.546Z,13.23
2022-09-24T01:55:37.820Z,12.95
2022-09-24T01:56:09.893Z,12.82
2022-09-24T01:56:56.769Z,12.93
2022-09-24T01:57:46.260Z,13.20
2022-09-24T01:58:14.785Z,12.10
2022-09-24T01:58:46.531Z,12.05
2022-09-24T01:59:23.603Z,13.00
2022-09-24T02:00:10.870Z,12.82
2022-09-24T02:00:32.865Z,13.02
2022-09-24T02:01:05.059Z,12.48
2022-09-24T02:01:35.206Z,12.50
2022-09-24T02:02:10.453Z,12.40
2022-09-24T02:02:42.650Z,12.77
2022-09-24T02:04:09.628Z,11.98
2022-09-24T02:04:35.853Z,12.57
2022-09-24T02:05:14.047Z,12.40
2022-09-24T02:05:55.688Z,12.07
2022-09-24T02:06:44.774Z,12.45
2022-09-24T02:07:16.830Z,13.07
2022-09-24T02:07:54.219Z,13.50
2022-09-24T02:08:35.003Z,13.43
2022-09-24T02:08:59.959Z,13.35
2022-09-24T02:09:43.511Z,13.15
2022-09-24T02:10:07.231Z,13.98
2022-09-24T02:10:32.996Z,13.27
2022-09-24T02:11:03.217Z,12.95
2022-09-24T02:11:27.987Z,13.13
2022-09-24T02:11:53.608Z,13.18
2022-09-24T02:12:29.594Z,12.90
2022-09-24T02:12:58.877Z,13.13
2022-09-24T02:13:25.794Z,13.27
2022-09-24T02:14:10.809Z,13.07
2022-09-24T02:14:36.510Z,13.00
2022-09-24T02:15:09.156Z,13.38
2022-09-24T02:15:34.941Z,13.02
2022-09-24T02:16:00.122Z,12.98
2022-09-24T02:16:28.993Z,12.65
2022-09-24T02:16:51.881Z,13.60
2022-09-24T02:17:14.810Z,13.30
2022-09-24T02:17:40.642Z,12.98
2022-09-24T02:18:09.054Z,13.50
2022-09-24T02:18:36.145Z,13.60
2022-09-24T02:19:01.015Z,13.60
2022-09-24T02:19:28.719Z,14.13
2022-09-24T02:19:50.841Z,13.73
2022-09-24T02:20:16.583Z,13.35
2022-09-24T02:20:41.417Z,13.48
2022-09-24T02:21:09.729Z,13.23
2022-09-24T02:21:33.163Z,13.38
2022-09-24T02:21:55.229Z,12.90
2022-09-24T02:22:17.715Z,12.80
2022-09-24T02:22:41.439Z,13.20
2022-09-24T02:23:04.787Z,14.20
2022-09-24T02:23:30.598Z,13.95
2022-09-24T02:23:58.153Z,13.27
2022-09-24T02:24:24.863Z,13.00
2022-09-24T02:24:54.303Z,13.23
2022-09-24T02:25:22.631Z,13.80
2022-09-24T02:25:58.243Z,14.82
2022-09-24T02:26:20.550Z,15.63
2022-09-24T02:26:46.203Z,15.10
2022-09-24T02:27:10.960Z,14.70
2022-09-24T02:27:32.718Z,15.00
2022-09-24T02:27:54.479Z,15.23
2022-09-24T02:28:19.994Z,15.52
2022-09-24T02:28:41.968Z,14.77
2022-09-24T02:29:05.496Z,14.88
2022-09-24T02:29:27.381Z,14.45
2022-09-24T02:29:49.313Z,14.80
2022-09-24T02:30:11.475Z,14.50
2022-09-24T02:30:40.761Z,14.40
2022-09-24T02:31:25.361Z,14.18
2022-09-24T02:31:50.027Z,14.07
2022-09-24T02:32:17.026Z,14.10
2022-09-24T02:32:41.069Z,14.45
2022-09-24T02:33:23.611Z,14.00
2022-09-24T02:34:07.679Z,14.02
2022-09-24T02:34:56.023Z,13.65
2022-09-24T02:35:26.499Z,14.02
2022-09-24T02:35:48.388Z,14.00
2022-09-24T02:36:12.234Z,14.13
2022-09-24T02:36:35.038Z,13.52
2022-09-24T02:37:05.365Z,13.63
2022-09-24T02:37:27.109Z,13.38
2022-09-24T02:37:49.676Z,13.10
2022-09-24T02:38:19.806Z,13.02
2022-09-24T02:38:44.128Z,13.38
2022-09-24T02:39:05.964Z,13.73
2022-09-24T02:39:27.908Z,13.80
2022-09-24T02:40:02.045Z,13.05
2022-09-24T02:40:24.193Z,14.00
2022-09-24T02:40:46.589Z,13.70
2022-09-24T02:41:09.086Z,13.68
2022-09-24T02:41:33.772Z,13.82
2022-09-24T02:42:00.864Z,12.82
2022-09-24T02:42:29.783Z,13.23
2022-09-24T02:42:51.591Z,13.18
2022-09-24T02:43:13.657Z,13.15
2022-09-24T02:43:41.398Z,13.40
2022-09-24T02:44:03.727Z,13.68
2022-09-24T02:44:31.495Z,13.43
2022-09-24T02:45:02.566Z,13.95
2022-09-24T02:45:28.730Z,13.75
2022-09-24T02:45:50.859Z,13.40
2022-09-24T02:46:12.806Z,13.15
2022-09-24T02:46:42.293Z,13.88
2022-09-24T02:47:04.879Z,13.48
2022-09-24T02:47:57.965Z,13.63
2022-09-24T02:48:19.737Z,13.30
2022-09-24T02:48:41.596Z,13.40
2022-09-24T02:49:03.324Z,13.23
2022-09-24T02:49:25.482Z,13.80
2022-09-24T02:49:47.226Z,14.13
2022-09-24T02:50:09.356Z,13.63
2022-09-24T02:50:31.069Z,12.98
2022-09-24T02:50:53.166Z,13.02
2022-09-24T02:51:14.906Z,13.40
2022-09-24T02:51:40.116Z,13.32
2022-09-24T02:52:25.853Z,13.65
2022-09-24T02:53:08.505Z,13.70
2022-09-24T02:53:31.385Z,13.93
2022-09-24T02:53:53.147Z,13.20
2022-09-24T02:54:14.968Z,13.07
2022-09-24T02:54:37.042Z,13.50
2022-09-24T02:54:58.806Z,13.50
2022-09-24T02:57:04.424Z,13.35
2022-09-24T02:57:55.539Z,13.50
2022-09-24T03:00:24.944Z,13.20
2022-09-24T03:00:47.026Z,13.57
2022-09-24T03:01:09.029Z,13.55
2022-09-24T03:01:33.700Z,13.60
2022-09-24T03:01:55.699Z,13.00
2022-09-24T03:02:20.950Z,13.68
2022-09-24T03:02:44.000Z,13.77
2022-09-24T03:03:08.429Z,13.57
2022-09-24T03:03:34.536Z,13.48
2022-09-24T03:04:02.645Z,13.82
2022-09-24T03:04:28.216Z,13.38
2022-09-24T03:05:32.590Z,13.27
2022-09-24T03:05:55.179Z,13.27
2022-09-24T03:06:27.915Z,14.10
2022-09-24T03:06:53.894Z,13.98
2022-09-24T03:07:17.091Z,13.43
2022-09-24T03:08:50.451Z,13.20
2022-09-24T03:09:13.704Z,13.65
2022-09-24T03:09:37.894Z,12.90
2022-09-24T03:10:10.585Z,13.10
2022-09-24T03:10:41.844Z,12.73
2022-09-24T03:11:26.732Z,13.10
2022-09-24T03:12:10.441Z,13.77
2022-09-24T03:17:28.994Z,13.43
2022-09-24T03:17:50.994Z,13.52
2022-09-24T03:18:14.021Z,13.70
2022-09-24T03:18:37.962Z,13.35
2022-09-24T03:18:59.722Z,14.35
2022-09-24T03:19:21.496Z,13.65
2022-09-24T03:19:43.346Z,13.52
2022-09-24T03:20:06.636Z,13.80
2022-09-24T03:20:29.643Z,13.80
2022-09-24T03:21:10.111Z,13.68
2022-09-24T03:21:31.985Z,14.18
2022-09-24T03:21:59.004Z,14.05
2022-09-24T03:22:21.903Z,13.15
2022-09-24T03:22:43.831Z,13.35
2022-09-24T03:23:05.825Z,12.88
2022-09-24T03:23:27.862Z,12.82
2022-09-24T03:23:49.920Z,13.80
2022-09-24T03:24:11.739Z,14.05
2022-09-24T03:24:33.564Z,13.23
2022-09-24T03:24:56.562Z,13.70
2022-09-24T03:25:19.850Z,14.38
2022-09-24T03:25:43.660Z,13.93
2022-09-24T03:26:05.646Z,13.55
2022-09-24T03:26:27.434Z,12.90
2022-09-24T03:26:49.233Z,13.30
2022-09-24T03:27:11.056Z,13.88
2022-09-24T03:27:34.673Z,13.15
2022-09-24T03:27:59.399Z,12.82
2022-09-24T03:28:21.984Z,12.98
2022-09-24T03:28:43.790Z,12.80
2022-09-24T03:29:05.592Z,12.63
2022-09-24T03:29:46.066Z,13.38
2022-09-24T03:30:26.716Z,13.40
2022-09-24T03:31:00.608Z,13.38
2022-09-24T03:31:24.494Z,13.38
2022-09-24T03:31:46.372Z,13.20
2022-09-24T03:32:08.204Z,12.88
2022-09-24T03:32:33.762Z,13.63
2022-09-24T03:32:55.493Z,13.52
2022-09-24T03:33:17.623Z,13.48
2022-09-24T03:33:44.859Z,12.80
2022-09-24T03:34:06.894Z,12.77
2022-09-24T03:34:29.745Z,12.82
2022-09-24T03:34:54.033Z,13.05
2022-09-24T03:35:15.849Z,13.05
2022-09-24T03:35:39.182Z,13.38
2022-09-24T03:36:05.039Z,12.80
2022-09-24T03:36:27.243Z,12.55
2022-09-24T03:36:48.962Z,13.38
2022-09-24T03:37:10.727Z,13.10
2022-09-24T03:37:33.408Z,13.20
2022-09-24T03:37:55.370Z,12.50
2022-09-24T03:38:17.069Z,12.73
2022-09-24T03:38:40.420Z,13.00
2022-09-24T03:39:05.154Z,12.88
2022-09-24T03:39:26.864Z,13.35
2022-09-24T03:39:48.577Z,13.05
2022-09-24T03:40:12.177Z,12.82
2022-09-24T03:40:34.077Z,12.48
2022-09-24T03:40:57.388Z,12.98
2022-09-24T03:41:19.448Z,13.43
2022-09-24T03:41:41.164Z,12.88
2022-09-24T03:42:02.954Z,12.63
2022-09-24T03:42:24.850Z,12.77
2022-09-24T03:42:46.647Z,12.98
2022-09-24T03:43:08.364Z,13.13
2022-09-24T03:43:32.062Z,12.80
2022-09-24T03:43:55.220Z,12.73
2022-09-24T03:44:16.985Z,12.75
2022-09-24T03:44:38.805Z,12.65
2022-09-24T03:45:00.804Z,13.15
2022-09-24T03:45:22.549Z,12.70
2022-09-24T03:45:44.679Z,13.38
2022-09-24T03:46:08.113Z,13.70
2022-09-24T03:46:30.602Z,13.27
2022-09-24T03:46:54.131Z,13.40
2022-09-24T03:47:16.036Z,12.98
2022-09-24T03:47:38.470Z,13.20
2022-09-24T03:48:00.282Z,12.55
2022-09-24T03:48:23.307Z,12.73
2022-09-24T03:48:47.562Z,12.82
2022-09-24T03:49:09.519Z,12.15
2022-09-24T03:49:31.246Z,12.68
2022-09-24T03:49:53.530Z,13.05
2022-09-24T03:50:15.331Z,12.70
2022-09-24T03:50:38.235Z,12.57
2022-09-24T03:51:09.839Z,13.00
2022-09-24T03:51:31.598Z,12.55
2022-09-24T03:51:53.385Z,12.43
2022-09-24T03:52:17.631Z,13.40
2022-09-24T03:52:39.746Z,12.60
2022-09-24T03:53:01.483Z,13.15
2022-09-24T03:53:23.504Z,12.48
2022-09-24T03:53:48.135Z,12.70
2022-09-24T03:54:09.901Z,12.45
2022-09-24T03:54:31.748Z,11.93
2022-09-24T03:54:53.526Z,12.65
2022-09-24T03:55:18.259Z,12.77
2022-09-24T03:55:54.944Z,13.85
2022-09-24T03:56:16.948Z,12.73
2022-09-24T03:56:38.909Z,12.23
2022-09-24T03:57:01.020Z,13.25
2022-09-24T03:57:22.781Z,13.63
2022-09-24T03:57:44.571Z,13.32
2022-09-24T03:58:06.349Z,12.45
2022-09-24T03:58:29.677Z,13.00
2022-09-24T03:58:51.438Z,13.40
2022-09-24T03:59:14.872Z,13.07
2022-09-24T03:59:36.870Z,12.77
2022-09-24T03:59:59.373Z,12.65
2022-09-24T04:00:22.057Z,12.68
2022-09-24T04:00:43.984Z,12.90
2022-09-24T04:01:07.992Z,13.27
2022-09-24T04:01:33.235Z,13.25
2022-09-24T04:01:55.352Z,12.63
2022-09-24T04:02:17.187Z,12.50
2022-09-24T04:02:40.684Z,12.82
2022-09-24T04:03:02.745Z,13.05
2022-09-24T04:03:25.509Z,12.75
2022-09-24T04:03:48.522Z,12.80
2022-09-24T04:04:14.495Z,12.60
2022-09-24T04:04:37.099Z,12.73
2022-09-24T04:05:00.030Z,13.27
2022-09-24T04:05:21.799Z,12.40
2022-09-24T04:05:43.672Z,12.73
2022-09-24T04:06:06.475Z,12.35
2022-09-24T04:06:29.355Z,12.73
2022-09-24T04:06:55.831Z,12.90
2022-09-24T04:07:17.797Z,13.30
2022-09-24T04:07:39.941Z,12.07
2022-09-24T04:08:02.767Z,11.48
2022-09-24T04:08:24.617Z,12.23
2022-09-24T04:08:46.393Z,12.13
2022-09-24T04:09:09.380Z,12.77
2022-09-24T04:09:31.185Z,13.13
2022-09-24T04:09:52.972Z,12.32
2022-09-24T04:10:16.034Z,12.60
2022-09-24T04:10:38.019Z,12.48
2022-09-24T04:11:00.001Z,12.85
2022-09-24T04:11:23.050Z,12.70
2022-09-24T04:11:44.855Z,12.68
2022-09-24T04:12:06.740Z,11.98
2022-09-24T04:12:29.139Z,11.95
2022-09-24T04:12:52.252Z,12.43
2022-09-24T04:13:14.077Z,12.52
2022-09-24T04:13:37.927Z,12.13
2022-09-24T04:13:59.822Z,12.77
2022-09-24T04:14:21.728Z,12.60
2022-09-24T04:14:43.494Z,12.93
2022-09-24T04:15:05.730Z,12.52
2022-09-24T04:15:27.726Z,12.18
2022-09-24T04:15:50.332Z,12.75
2022-09-24T04:16:13.034Z,12.90
2022-09-24T04:16:36.710Z,13.10
2022-09-24T04:16:58.971Z,12.35
2022-09-24T04:17:20.747Z,12.40
2022-09-24T04:17:42.583Z,12.25
2022-09-24T04:18:04.867Z,12.00
2022-09-24T04:18:26.744Z,12.50
2022-09-24T04:18:48.828Z,12.63
2022-09-24T04:19:10.693Z,12.60
2022-09-24T04:19:32.540Z,12.48
2022-09-24T04:19:55.103Z,12.52
2022-09-24T04:20:16.988Z,12.55
2022-09-24T04:20:39.055Z,12.52
2022-09-24T04:21:01.395Z,12.48
2022-09-24T04:21:23.190Z,12.48
2022-09-24T04:21:45.972Z,12.45
2022-09-24T04:22:07.793Z,12.65
2022-09-24T04:22:29.584Z,12.90
2022-09-24T04:22:52.291Z,12.57
2022-09-24T04:23:14.111Z,12.60
2022-09-24T04:23:36.091Z,12.43
2022-09-24T04:23:58.248Z,12.82
2022-09-24T04:24:21.305Z,12.75
2022-09-24T04:24:43.998Z,12.75
2022-09-24T04:25:10.279Z,12.68
2022-09-24T04:25:35.966Z,12.70
2022-09-24T04:26:00.763Z,12.95
2022-09-24T04:26:22.520Z,13.05
2022-09-24T04:26:44.523Z,13.10
2022-09-24T04:27:11.540Z,13.07
2022-09-24T04:27:33.625Z,12.10
2022-09-24T04:28:00.583Z,12.65
2022-09-24T04:28:22.341Z,12.25
2022-09-24T04:28:44.171Z,13.00
2022-09-24T04:29:08.097Z,12.75
2022-09-24T04:29:29.833Z,12.98
2022-09-24T04:29:51.561Z,12.80
2022-09-24T04:30:14.995Z,12.65
2022-09-24T04:30:38.234Z,12.35
2022-09-24T04:31:00.480Z,13.43
2022-09-24T04:31:23.586Z,13.50
2022-09-24T04:31:48.183Z,12.82
2022-09-24T04:32:09.956Z,13.38
2022-09-24T04:32:31.855Z,13.20
2022-09-24T04:32:53.896Z,12.75
2022-09-24T04:33:15.836Z,12.82
2022-09-24T04:33:37.615Z,12.20
2022-09-24T04:33:59.837Z,12.95
2022-09-24T04:34:22.524Z,13.18
2022-09-24T04:34:44.371Z,13.18
2022-09-24T04:35:07.707Z,12.82
2022-09-24T04:35:33.072Z,12.95
2022-09-24T04:35:54.919Z,12.82
2022-09-24T04:36:17.445Z,12.88
2022-09-24T04:36:39.182Z,12.98
2022-09-24T04:37:00.998Z,12.32
2022-09-24T04:37:22.734Z,12.45
2022-09-24T04:37:44.938Z,12.13
2022-09-24T04:38:06.798Z,12.52
2022-09-24T04:38:29.709Z,12.60
2022-09-24T04:38:51.423Z,12.85
2022-09-24T04:39:13.236Z,13.32
2022-09-24T04:39:34.971Z,12.68
2022-09-24T04:39:59.570Z,12.27
2022-09-24T04:40:21.600Z,12.52
2022-09-24T04:40:45.388Z,12.88
2022-09-24T04:41:08.638Z,12.50
2022-09-24T04:41:30.644Z,12.63
2022-09-24T04:41:53.439Z,13.43
2022-09-24T04:42:18.911Z,12.57
2022-09-24T04:42:46.378Z,13.00
2022-09-24T04:43:08.149Z,12.85
2022-09-24T04:43:29.916Z,12.00
2022-09-24T04:43:51.701Z,12.50
2022-09-24T04:44:15.369Z,12.10
2022-09-24T04:44:39.462Z,12.02
2022-09-24T04:45:02.396Z,12.63
2022-09-24T04:45:24.949Z,12.95
2022-09-24T04:45:51.963Z,12.43
2022-09-24T04:46:13.986Z,12.23
2022-09-24T04:46:36.080Z,13.93
2022-09-24T04:47:02.962Z,14.20
2022-09-24T04:47:25.973Z,13.80
2022-09-24T04:48:00.253Z,14.18
2022-09-24T04:48:23.430Z,14.98
2022-09-24T04:48:45.265Z,15.18
2022-09-24T04:49:07.914Z,15.15
2022-09-24T04:49:30.347Z,15.35
2022-09-24T04:49:52.529Z,14.25
2022-09-24T04:50:14.385Z,14.67
2022-09-24T04:50:36.278Z,14.85
2022-09-24T04:50:58.581Z,14.70
2022-09-24T04:51:21.661Z,15.35
2022-09-24T04:51:43.512Z,16.20
2022-09-24T04:52:05.217Z,15.57
2022-09-24T04:52:29.778Z,14.43
2022-09-24T04:52:51.619Z,14.35
2022-09-24T04:53:14.163Z,14.85
2022-09-24T04:53:37.697Z,14.40
2022-09-24T04:54:02.918Z,14.63
2022-09-24T04:54:29.691Z,15.00
2022-09-24T04:54:51.443Z,16.60
2022-09-24T04:55:13.525Z,18.63
2022-09-24T04:55:37.461Z,21.33
2022-09-24T04:56:02.884Z,21.58
2022-09-24T04:56:24.696Z,23.17
2022-09-24T04:56:46.493Z,24.65
2022-09-24T04:57:08.252Z,28.08
2022-09-24T04:57:36.353Z,25.65
2022-09-24T04:57:59.958Z,30.45
2022-09-24T04:58:21.715Z,32.70
2022-09-24T04:58:43.694Z,31.80
2022-09-24T04:59:05.532Z,34.58
2022-09-24T04:59:27.685Z,29.83
2022-09-24T04:59:49.463Z,24.10
2022-09-24T05:00:15.408Z,17.98
2022-09-24T05:00:37.337Z,20.17
2022-09-24T05:01:03.838Z,18.27
2022-09-24T05:01:26.061Z,17.20
2022-09-24T05:01:47.958Z,16.48
2022-09-24T05:02:10.135Z,20.13
2022-09-24T05:02:32.183Z,25.25
2022-09-24T05:03:04.789Z,22.33
2022-09-24T05:03:27.888Z,15.55
2022-09-24T05:03:50.619Z,14.40
2022-09-24T05:04:12.428Z,13.05
2022-09-24T05:04:34.630Z,12.95
2022-09-24T05:04:56.394Z,13.07
2022-09-24T05:05:18.723Z,15.73
2022-09-24T05:05:42.751Z,17.10
2022-09-24T05:06:07.740Z,20.13
2022-09-24T05:06:29.816Z,24.38
2022-09-24T05:06:51.585Z,23.23
2022-09-24T05:07:13.897Z,22.35
2022-09-24T05:07:39.139Z,23.65
2022-09-24T05:08:01.954Z,26.88
2022-09-24T05:08:23.728Z,25.58
2022-09-24T05:08:45.535Z,21.50
2022-09-24T05:09:12.298Z,20.35
2022-09-24T05:09:35.122Z,18.20
2022-09-24T05:09:57.413Z,16.57
2022-09-24T05:10:19.384Z,16.50
2022-09-24T05:10:42.212Z,16.75
2022-09-24T05:11:04.691Z,17.85
2022-09-24T05:11:26.547Z,17.50
2022-09-24T05:11:49.324Z,17.10
2022-09-24T05:12:11.449Z,17.85
2022-09-24T05:12:35.523Z,18.38
2022-09-24T05:12:57.419Z,17.98
2022-09-24T05:13:20.033Z,18.00
2022-09-24T05:13:41.752Z,17.95
2022-09-24T05:14:03.628Z,17.73
2022-09-24T05:14:25.981Z,18.58
2022-09-24T05:14:48.781Z,18.23
2022-09-24T05:15:11.779Z,17.20
2022-09-24T05:15:33.912Z,17.50
2022-09-24T05:15:55.733Z,15.75
2022-09-24T05:16:21.037Z,15.90
2022-09-24T05:16:42.782Z,16.98
2022-09-24T05:17:04.514Z,15.52
2022-09-24T05:17:26.341Z,14.18
2022-09-24T05:17:48.582Z,14.55
2022-09-24T05:18:10.370Z,12.95
2022-09-24T05:18:32.169Z,13.05
2022-09-24T05:18:54.923Z,12.70
2022-09-24T05:19:17.036Z,12.57
2022-09-24T05:19:38.747Z,12.15
2022-09-24T05:20:01.437Z,12.30
2022-09-24T05:20:23.387Z,11.95
2022-09-24T05:20:45.403Z,12.40
2022-09-24T05:21:07.393Z,12.68
2022-09-24T05:21:29.198Z,12.50
2022-09-24T05:21:52.903Z,13.15
2022-09-24T05:22:14.904Z,12.63
2022-09-24T05:22:43.150Z,12.60
2022-09-24T05:23:05.401Z,12.38
2022-09-24T05:23:27.276Z,12.38
2022-09-24T05:23:49.056Z,12.90
2022-09-24T05:24:10.780Z,12.32
2022-09-24T05:24:32.537Z,12.43
2022-09-24T05:24:54.532Z,12.80
2022-09-24T05:25:19.518Z,12.18
2022-09-24T05:26:00.079Z,12.15
2022-09-24T05:26:40.446Z,11.98
2022-09-24T05:27:11.605Z,11.50
2022-09-24T05:27:33.395Z,12.32
2022-09-24T05:27:55.737Z,12.15
2022-09-24T05:28:19.389Z,11.32
2022-09-24T05:28:42.910Z,11.73
2022-09-24T05:29:05.351Z,12.05
2022-09-24T05:29:27.490Z,11.23
2022-09-24T05:29:49.283Z,11.52
2022-09-24T05:30:12.291Z,12.25
2022-09-24T05:30:34.039Z,11.70
2022-09-24T05:30:59.300Z,11.75
2022-09-24T05:31:21.113Z,11.43
2022-09-24T05:31:42.976Z,11.18
2022-09-24T05:32:12.127Z,11.30
2022-09-24T05:32:34.106Z,12.20
2022-09-24T05:32:55.904Z,11.45
2022-09-24T05:33:17.774Z,11.32
2022-09-24T05:33:39.633Z,11.65
2022-09-24T05:34:01.336Z,11.48
2022-09-24T05:34:25.035Z,11.88
2022-09-24T05:34:47.548Z,11.50
2022-09-24T05:35:10.015Z,11.65
2022-09-24T05:35:31.835Z,12.38
2022-09-24T05:36:03.646Z,12.05
2022-09-24T05:36:27.051Z,11.82
2022-09-24T05:36:49.108Z,11.85
2022-09-24T05:37:11.691Z,11.52
2022-09-24T05:37:33.795Z,11.52
2022-09-24T05:37:56.674Z,11.43
2022-09-24T05:38:18.525Z,11.77
2022-09-24T05:38:41.827Z,11.82
2022-09-24T05:39:05.915Z,11.80
2022-09-24T05:39:33.843Z,11.50
2022-09-24T05:40:18.263Z,12.43
2022-09-24T05:40:49.373Z,12.15
2022-09-24T05:41:11.185Z,11.80
2022-09-24T05:41:33.211Z,12.48
2022-09-24T05:41:56.322Z,13.00
2022-09-24T05:42:18.142Z,12.77
2022-09-24T05:42:40.016Z,13.38
2022-09-24T05:43:02.865Z,12.98